createdAt,value
2023-04-07T00:01:40.075Z,101545.38
2023-04-07T00:04:10.030Z,101552.34
2023-04-07T00:06:36.870Z,101551.88
2023-04-07T00:09:03.637Z,101553.78
2023-04-07T00:11:30.163Z,101546.78
2023-04-07T00:13:56.603Z,101548.69
2023-04-07T00:16:23.174Z,101547.41
2023-04-07T00:18:49.890Z,101552.00
2023-04-07T00:21:16.542Z,101546.63
2023-04-07T00:23:42.954Z,101550.09
2023-04-07T00:26:09.411Z,101552.00
2023-04-07T00:28:35.872Z,101552.63
2023-04-07T00:31:02.292Z,101553.75
2023-04-07T00:33:28.828Z,101554.84
2023-04-07T00:35:57.780Z,101553.28
2023-04-07T00:38:24.549Z,101557.69
2023-04-07T00:40:56.965Z,101555.78
2023-04-07T00:43:23.448Z,101552.00
2023-04-07T00:45:51.100Z,101557.38
2023-04-07T00:48:17.599Z,101550.09
2023-04-07T00:50:46.032Z,101555.97
2023-04-07T00:53:12.733Z,101551.38
2023-04-07T00:55:39.369Z,101554.38
2023-04-07T00:58:06.022Z,101555.16
2023-04-07T01:00:45.706Z,101554.38
2023-04-07T01:03:24.219Z,101553.91
2023-04-07T01:05:57.842Z,101553.09
2023-04-07T01:08:32.982Z,101555.78
2023-04-07T01:11:17.729Z,101549.59
2023-04-07T01:13:50.127Z,101548.03
2023-04-07T01:16:42.748Z,101549.91
2023-04-07T01:19:16.933Z,101551.03
2023-04-07T01:21:46.991Z,101551.81
2023-04-07T01:24:31.883Z,101554.53
2023-04-07T01:27:05.603Z,101555.63
2023-04-07T01:29:37.778Z,101562.13
2023-04-07T01:32:12.046Z,101557.84
2023-04-07T01:34:39.071Z,101561.31
2023-04-07T01:37:08.787Z,101561.66
2023-04-07T01:39:37.090Z,101556.25
2023-04-07T01:42:06.795Z,101554.66
2023-04-07T01:44:34.362Z,101560.84
2023-04-07T01:47:02.083Z,101558.13
2023-04-07T01:49:31.063Z,101555.44
2023-04-07T01:51:58.018Z,101557.84
2023-04-07T01:54:26.051Z,101552.44
2023-04-07T01:56:52.867Z,101556.75
2023-04-07T01:59:19.356Z,101555.63
2023-04-07T02:01:46.126Z,101551.81
2023-04-07T02:04:40.596Z,101555.31
2023-04-07T02:07:19.148Z,101553.75
2023-04-07T02:09:48.297Z,101556.44
2023-04-07T02:12:16.762Z,101554.53
2023-04-07T02:14:44.453Z,101551.81
2023-04-07T02:17:12.001Z,101555.31
2023-04-07T02:19:39.153Z,101554.53
2023-04-07T02:22:06.915Z,101558.81
2023-04-07T02:24:33.356Z,101566.09
2023-04-07T02:27:02.435Z,101558.31
2023-04-07T02:29:28.854Z,101565.28
2023-04-07T02:31:56.316Z,101561.00
2023-04-07T02:34:22.955Z,101565.28
2023-04-07T02:36:49.602Z,101561.00
2023-04-07T02:39:16.043Z,101561.81
2023-04-07T02:41:42.441Z,101556.75
2023-04-07T02:44:08.883Z,101559.44
2023-04-07T02:46:35.758Z,101555.13
2023-04-07T02:49:02.636Z,101553.56
2023-04-07T02:51:29.104Z,101567.34
2023-04-07T02:53:56.086Z,101566.69
2023-04-07T02:56:22.738Z,101560.84
2023-04-07T02:58:49.268Z,101566.38
2023-04-07T03:01:15.831Z,101563.69
2023-04-07T03:03:44.982Z,101571.47
2023-04-07T03:06:11.740Z,101568.47
2023-04-07T03:08:38.256Z,101568.47
2023-04-07T03:11:04.808Z,101570.53
2023-04-07T03:13:31.468Z,101573.22
2023-04-07T03:15:58.110Z,101565.94
2023-04-07T03:18:25.068Z,101564.38
2023-04-07T03:20:52.950Z,101571.63
2023-04-07T03:23:19.662Z,101574.34
2023-04-07T03:25:47.522Z,101571.16
2023-04-07T03:28:15.757Z,101573.06
2023-04-07T03:30:42.333Z,101569.09
2023-04-07T03:33:09.198Z,101572.59
2023-04-07T03:35:35.964Z,101569.09
2023-04-07T03:38:02.356Z,101573.22
2023-04-07T03:40:29.261Z,101575.13
2023-04-07T03:42:55.665Z,101575.44
2023-04-07T03:45:22.128Z,101577.00
2023-04-07T03:47:48.692Z,101576.22
2023-04-07T03:50:15.798Z,101581.59
2023-04-07T03:52:42.735Z,101575.44
2023-04-07T03:55:09.721Z,101567.34
2023-04-07T03:57:36.556Z,101568.44
2023-04-07T04:00:03.369Z,101568.44
2023-04-07T04:02:29.912Z,101573.22
2023-04-07T04:04:56.438Z,101571.59
2023-04-07T04:07:23.106Z,101573.50
2023-04-07T04:09:49.524Z,101578.13
2023-04-07T04:12:16.101Z,101583.19
2023-04-07T04:14:42.520Z,101583.69
2023-04-07T04:17:09.047Z,101574.31
2023-04-07T04:19:35.714Z,101574.31
2023-04-07T04:22:02.197Z,101587.47
2023-04-07T04:24:28.708Z,101579.22
2023-04-07T04:26:55.101Z,101584.59
2023-04-07T04:29:30.169Z,101582.69
2023-04-07T04:31:58.139Z,101591.59
2023-04-07T04:34:24.745Z,101594.28
2023-04-07T04:36:51.400Z,101597.75
2023-04-07T04:39:17.815Z,101604.41
2023-04-07T04:41:48.137Z,101611.22
2023-04-07T04:44:14.560Z,101601.53
2023-04-07T04:46:41.223Z,101610.75
2023-04-07T04:49:07.793Z,101616.13
2023-04-07T04:51:34.438Z,101615.31
2023-04-07T04:54:00.892Z,101621.53
2023-04-07T04:56:40.916Z,101617.22
2023-04-07T04:59:07.513Z,101620.72
2023-04-07T05:01:34.101Z,101629.13
2023-04-07T05:04:01.178Z,101626.44
2023-04-07T05:06:28.094Z,101622.91
2023-04-07T05:08:54.477Z,101630.69
2023-04-07T05:11:21.470Z,101626.91
2023-04-07T05:13:47.868Z,101625.78
2023-04-07T05:16:14.397Z,101631.34
2023-04-07T05:18:41.876Z,101631.03
2023-04-07T05:21:08.318Z,101635.81
2023-04-07T05:23:35.806Z,101633.91
2023-04-07T05:26:02.366Z,101635.81
2023-04-07T05:28:29.449Z,101640.09
2023-04-07T05:30:56.018Z,101640.09
2023-04-07T05:33:22.491Z,101644.38
2023-04-07T05:35:49.003Z,101640.88
2023-04-07T05:38:16.782Z,101647.06
2023-04-07T05:40:43.405Z,101646.28
2023-04-07T05:43:09.900Z,101639.28
2023-04-07T05:45:36.690Z,101642.81
2023-04-07T05:48:03.298Z,101648.66
2023-04-07T05:50:29.913Z,101652.97
2023-04-07T05:52:56.474Z,101649.16
2023-04-07T05:58:14.209Z,101657.72
2023-04-07T06:00:41.516Z,101658.53
2023-04-07T06:03:08.274Z,101658.53
2023-04-07T06:05:35.079Z,101658.81
2023-04-07T06:08:01.632Z,101661.53
2023-04-07T06:10:28.298Z,101669.28
2023-04-07T06:12:54.824Z,101665.00
2023-04-07T06:15:21.288Z,101669.78
2023-04-07T06:17:47.689Z,101672.94
2023-04-07T06:20:14.217Z,101671.53
2023-04-07T06:22:41.056Z,101676.59
2023-04-07T06:25:08.056Z,101672.81
2023-04-07T06:27:34.526Z,101679.81
2023-04-07T06:30:01.294Z,101682.50
2023-04-07T06:32:28.339Z,101680.59
2023-04-07T06:34:54.761Z,101684.53
2023-04-07T06:37:21.759Z,101683.16
2023-04-07T06:39:48.333Z,101687.41
2023-04-07T06:42:14.770Z,101688.88
2023-04-07T06:44:53.689Z,101689.03
2023-04-07T06:47:20.385Z,101691.28
2023-04-07T06:49:46.822Z,101691.28
2023-04-07T06:52:13.373Z,101694.47
2023-04-07T06:54:40.040Z,101695.41
2023-04-07T06:57:11.920Z,101707.97
2023-04-07T06:59:39.164Z,101714.00
2023-04-07T07:02:07.542Z,101710.69
2023-04-07T07:04:35.118Z,101712.78
2023-04-07T07:07:02.459Z,101715.00
2023-04-07T07:09:28.922Z,101710.72
2023-04-07T07:11:55.850Z,101712.03
2023-04-07T07:14:22.511Z,101717.47
2023-04-07T07:16:48.948Z,101715.72
2023-04-07T07:19:15.656Z,101714.47
2023-04-07T07:21:42.233Z,101720.81
2023-04-07T07:24:08.970Z,101722.88
2023-04-07T07:26:35.333Z,101725.75
2023-04-07T07:29:22.238Z,101729.38
2023-04-07T07:31:48.930Z,101728.59
2023-04-07T07:34:15.413Z,101735.91
2023-04-07T07:36:42.081Z,101733.22
2023-04-07T07:39:08.475Z,101724.81
2023-04-07T07:41:35.079Z,101734.78
2023-04-07T07:44:07.386Z,101740.84
2023-04-07T07:46:40.241Z,101744.34
2023-04-07T07:49:06.754Z,101747.50
2023-04-07T07:51:46.567Z,101749.88
2023-04-07T07:54:13.165Z,101750.03
2023-04-07T07:56:39.765Z,101748.78
2023-04-07T07:59:09.259Z,101752.44
2023-04-07T08:01:35.913Z,101752.75
2023-04-07T08:04:02.716Z,101754.97
2023-04-07T08:06:29.450Z,101765.31
2023-04-07T08:08:56.052Z,101768.78
2023-04-07T08:11:23.479Z,101760.06
2023-04-07T08:13:50.422Z,101761.81
2023-04-07T08:16:17.453Z,101765.44
2023-04-07T08:18:43.971Z,101771.44
2023-04-07T08:21:10.444Z,101767.28
2023-04-07T08:23:37.989Z,101765.81
2023-04-07T08:26:04.548Z,101771.84
2023-04-07T08:28:31.208Z,101776.91
2023-04-07T08:31:00.781Z,101772.53
2023-04-07T08:33:27.251Z,101774.56
2023-04-07T08:35:56.677Z,101777.53
2023-04-07T08:41:29.766Z,101777.41
2023-04-07T08:43:58.147Z,101779.22
2023-04-07T08:49:10.617Z,101781.63
2023-04-07T08:51:47.247Z,101784.97
2023-04-07T08:54:22.172Z,101792.13
2023-04-07T08:56:48.672Z,101786.66
2023-04-07T08:59:18.723Z,101788.78
2023-04-07T09:01:46.639Z,101791.88
2023-04-07T09:06:54.302Z,101806.72
2023-04-07T09:09:20.966Z,101807.16
2023-04-07T09:11:48.561Z,101804.34
2023-04-07T09:14:30.384Z,101808.97
2023-04-07T09:17:02.805Z,101816.13
2023-04-07T09:19:30.880Z,101813.41
2023-04-07T09:21:57.260Z,101815.09
2023-04-07T09:24:26.262Z,101817.97
2023-04-07T09:27:17.097Z,101815.91
2023-04-07T09:29:46.362Z,101820.88
2023-04-07T09:32:14.203Z,101812.41
2023-04-07T09:34:41.525Z,101818.38
2023-04-07T09:37:09.732Z,101822.78
2023-04-07T09:39:53.953Z,101817.03
2023-04-07T09:42:21.554Z,101823.19
2023-04-07T09:44:48.030Z,101814.53
2023-04-07T09:47:14.776Z,101816.13
2023-04-07T09:49:53.644Z,101817.72
2023-04-07T09:52:25.629Z,101826.97
2023-04-07T09:54:53.192Z,101828.13
2023-04-07T09:57:21.350Z,101831.72
2023-04-07T09:59:48.791Z,101831.22
2023-04-07T10:02:15.606Z,101828.06
2023-04-07T10:04:42.442Z,101826.31
2023-04-07T10:07:09.113Z,101831.66
2023-04-07T10:09:35.732Z,101834.81
2023-04-07T10:12:03.137Z,101832.69
2023-04-07T10:14:32.789Z,101829.53
2023-04-07T10:17:04.432Z,101836.38
2023-04-07T10:19:33.576Z,101839.34
2023-04-07T10:22:03.170Z,101836.31
2023-04-07T10:24:51.060Z,101840.03
2023-04-07T10:27:29.587Z,101844.50
2023-04-07T10:29:58.395Z,101851.66
2023-04-07T10:32:25.414Z,101847.84
2023-04-07T10:34:53.750Z,101848.16
2023-04-07T10:37:22.453Z,101851.00
2023-04-07T10:42:40.909Z,101855.47
2023-04-07T10:45:09.332Z,101856.59
2023-04-07T10:47:58.807Z,101861.22
2023-04-07T10:50:25.987Z,101862.03
2023-04-07T10:53:09.832Z,101871.25
2023-04-07T10:55:43.869Z,101863.31
2023-04-07T10:58:14.730Z,101859.88
2023-04-07T11:00:41.590Z,101872.19
2023-04-07T11:03:14.506Z,101875.38
2023-04-07T11:05:41.816Z,101878.28
2023-04-07T11:08:08.884Z,101882.44
2023-04-07T11:10:36.346Z,101878.31
2023-04-07T11:13:07.996Z,101880.06
2023-04-07T11:15:40.223Z,101880.38
2023-04-07T11:18:15.059Z,101887.25
2023-04-07T11:20:55.894Z,101885.97
2023-04-07T11:23:24.123Z,101883.56
2023-04-07T11:25:52.444Z,101885.66
2023-04-07T11:28:19.723Z,101887.72
2023-04-07T11:30:49.950Z,101893.44
2023-04-07T11:33:18.874Z,101897.06
2023-04-07T11:35:52.405Z,101890.06
2023-04-07T11:38:19.465Z,101890.34
2023-04-07T11:40:46.503Z,101893.50
2023-04-07T11:43:27.120Z,101902.28
2023-04-07T11:46:16.635Z,101895.25
2023-04-07T11:48:45.404Z,101892.38
2023-04-07T11:51:19.968Z,101892.84
2023-04-07T11:53:50.181Z,101900.31
2023-04-07T11:56:17.580Z,101903.06
2023-04-07T11:59:02.967Z,101904.03
2023-04-07T12:01:42.028Z,101907.69
2023-04-07T12:04:13.152Z,101910.06
2023-04-07T12:06:41.671Z,101905.81
2023-04-07T12:09:09.739Z,101915.34
2023-04-07T12:11:39.658Z,101914.56
2023-04-07T12:14:06.631Z,101918.53
2023-04-07T12:16:38.296Z,101924.06
2023-04-07T12:19:04.881Z,101926.16
2023-04-07T12:21:31.618Z,101925.81
2023-04-07T12:23:58.051Z,101930.59
2023-04-07T12:26:25.544Z,101930.41
2023-04-07T12:28:52.146Z,101931.66
2023-04-07T12:31:18.687Z,101939.59
2023-04-07T12:33:45.475Z,101938.97
2023-04-07T12:36:12.024Z,101938.47
2023-04-07T12:38:38.484Z,101928.69
2023-04-07T12:41:04.926Z,101927.25
2023-04-07T12:43:31.668Z,101939.69
2023-04-07T12:45:58.395Z,101932.69
2023-04-07T12:48:26.690Z,101933.47
2023-04-07T12:50:53.393Z,101938.22
2023-04-07T12:53:19.857Z,101940.75
2023-04-07T12:55:50.339Z,101948.41
2023-04-07T12:58:17.570Z,101946.81
2023-04-07T13:00:44.105Z,101946.69
2023-04-07T13:03:10.750Z,101946.69
2023-04-07T13:05:37.374Z,101946.34
2023-04-07T13:08:04.881Z,101948.94
2023-04-07T13:10:31.540Z,101954.34
2023-04-07T13:12:58.186Z,101951.13
2023-04-07T13:15:24.775Z,101953.97
2023-04-07T13:17:51.371Z,101961.31
2023-04-07T13:20:28.218Z,101959.25
2023-04-07T13:23:05.938Z,101966.56
2023-04-07T13:25:36.560Z,101962.28
2023-04-07T13:28:03.569Z,101961.50
2023-04-07T13:30:30.158Z,101967.09
2023-04-07T13:32:57.445Z,101962.78
2023-04-07T13:35:24.037Z,101966.78
2023-04-07T13:37:50.734Z,101964.09
2023-04-07T13:40:19.526Z,101967.94
2023-04-07T13:42:45.993Z,101966.19
2023-04-07T13:45:12.457Z,101964.63
2023-04-07T13:47:39.342Z,101965.59
2023-04-07T13:50:06.461Z,101970.53
2023-04-07T13:52:35.210Z,101966.41
2023-04-07T13:55:04.079Z,101973.41
2023-04-07T13:57:46.568Z,101969.91
2023-04-07T14:00:16.735Z,101970.72
2023-04-07T14:02:45.845Z,101968.31
2023-04-07T14:05:12.492Z,101970.41
2023-04-07T14:07:38.879Z,101975.63
2023-04-07T14:10:06.441Z,101971.94
2023-04-07T14:12:34.572Z,101972.88
2023-04-07T14:15:13.182Z,101964.44
2023-04-07T14:17:40.000Z,101977.31
2023-04-07T14:20:07.190Z,101971.56
2023-04-07T14:22:33.620Z,101971.25
2023-04-07T14:25:00.482Z,101980.16
2023-04-07T14:27:28.152Z,101977.44
2023-04-07T14:29:58.196Z,101981.28
2023-04-07T14:32:24.861Z,101986.53
2023-04-07T14:34:51.618Z,101984.09
2023-04-07T14:37:28.802Z,101974.31
2023-04-07T14:40:01.840Z,101980.88
2023-04-07T14:42:29.996Z,101985.84
2023-04-07T14:44:57.003Z,101982.19
2023-04-07T14:47:29.639Z,101975.38
2023-04-07T14:49:59.092Z,101984.19
2023-04-07T14:52:32.427Z,101995.66
2023-04-07T14:55:00.451Z,101984.88
2023-04-07T14:57:27.205Z,101989.84
2023-04-07T14:59:53.704Z,101992.41
2023-04-07T15:02:20.252Z,101991.59
2023-04-07T15:04:46.922Z,101998.59
2023-04-07T15:07:13.506Z,101998.00
2023-04-07T15:09:40.025Z,101999.59
2023-04-07T15:12:06.506Z,102001.34
2023-04-07T15:14:32.977Z,102009.78
2023-04-07T15:16:59.572Z,102003.91
2023-04-07T15:19:25.970Z,102003.75
2023-04-07T15:21:52.556Z,102010.28
2023-04-07T15:24:21.395Z,102010.13
2023-04-07T15:26:48.576Z,102017.59
2023-04-07T15:29:15.174Z,102020.16
2023-04-07T15:31:41.707Z,102022.69
2023-04-07T15:34:08.226Z,102021.88
2023-04-07T15:36:34.910Z,102021.09
2023-04-07T15:39:05.400Z,102021.72
2023-04-07T15:41:32.847Z,102016.16
2023-04-07T15:44:00.567Z,102030.00
2023-04-07T15:46:27.203Z,102027.97
2023-04-07T15:48:53.794Z,102024.13
2023-04-07T15:51:20.590Z,102029.53
2023-04-07T15:53:47.270Z,102032.56
2023-04-07T15:56:13.982Z,102033.69
2023-04-07T15:58:40.581Z,102028.13
2023-04-07T16:01:08.214Z,102035.09
2023-04-07T16:03:34.827Z,102033.38
2023-04-07T16:06:01.457Z,102039.09
2023-04-07T16:08:27.880Z,102040.69
2023-04-07T16:10:54.280Z,102042.59
2023-04-07T16:13:20.746Z,102036.72
2023-04-07T16:15:47.384Z,102038.94
2023-04-07T16:18:13.802Z,102034.94
2023-04-07T16:20:40.852Z,102041.50
2023-04-07T16:23:07.457Z,102034.63
2023-04-07T16:25:33.841Z,102045.78
2023-04-07T16:28:08.615Z,102043.84
2023-04-07T16:30:35.190Z,102045.47
2023-04-07T16:33:01.887Z,102048.16
2023-04-07T16:35:30.140Z,102054.34
2023-04-07T16:37:59.240Z,102057.88
2023-04-07T16:40:25.655Z,102062.78
2023-04-07T16:42:52.313Z,102058.81
2023-04-07T16:45:18.885Z,102059.44
2023-04-07T16:47:45.494Z,102068.16
2023-04-07T16:50:12.491Z,102065.28
2023-04-07T16:52:39.155Z,102069.91
2023-04-07T16:55:06.230Z,102076.41
2023-04-07T16:57:32.621Z,102078.34
2023-04-07T16:59:59.104Z,102075.63
2023-04-07T17:02:27.378Z,102079.78
2023-04-07T17:04:54.385Z,102083.09
2023-04-07T17:07:21.389Z,102078.00
2023-04-07T17:09:57.641Z,102083.72
2023-04-07T17:12:30.270Z,102088.66
2023-04-07T17:14:56.714Z,102088.97
2023-04-07T17:17:23.255Z,102090.06
2023-04-07T17:19:50.135Z,102097.38
2023-04-07T17:22:16.561Z,102095.94
2023-04-07T17:24:43.025Z,102095.47
2023-04-07T17:27:09.663Z,102100.72
2023-04-07T17:29:36.156Z,102104.22
2023-04-07T17:32:02.670Z,102109.13
2023-04-07T17:34:29.204Z,102118.84
2023-04-07T17:36:56.017Z,102113.56
2023-04-07T17:39:22.477Z,102123.44
2023-04-07T17:41:48.915Z,102123.56
2023-04-07T17:44:15.754Z,102127.34
2023-04-07T17:46:42.337Z,102136.06
2023-04-07T17:49:08.807Z,102131.81
2023-04-07T17:51:35.362Z,102130.50
2023-04-07T17:54:01.919Z,102138.44
2023-04-07T17:56:28.704Z,102136.81
2023-04-07T17:58:55.170Z,102143.34
2023-04-07T18:04:08.474Z,102143.47
2023-04-07T18:06:35.088Z,102154.91
2023-04-07T18:09:01.798Z,102149.31
2023-04-07T18:11:28.506Z,102156.94
2023-04-07T18:13:55.311Z,102159.34
2023-04-07T18:16:22.525Z,102157.72
2023-04-07T18:18:49.429Z,102164.25
2023-04-07T18:21:16.186Z,102171.53
2023-04-07T18:23:42.768Z,102165.34
2023-04-07T18:26:09.166Z,102165.34
2023-04-07T18:28:35.951Z,102166.44
2023-04-07T18:31:06.582Z,102167.25
2023-04-07T18:33:34.168Z,102170.28
2023-04-07T18:36:07.270Z,102180.59
2023-04-07T18:38:35.520Z,102175.97
2023-04-07T18:41:02.647Z,102177.88
2023-04-07T18:43:30.034Z,102178.50
2023-04-07T18:45:56.502Z,102183.91
2023-04-07T18:48:23.408Z,102199.31
2023-04-07T18:50:52.132Z,102196.41
2023-04-07T18:53:20.328Z,102200.81
2023-04-07T18:55:49.118Z,102205.44
2023-04-07T18:58:16.324Z,102203.03
2023-04-07T19:00:43.406Z,102205.25
2023-04-07T19:03:10.111Z,102212.34
2023-04-07T19:05:40.111Z,102222.06
2023-04-07T19:08:06.813Z,102228.56
2023-04-07T19:10:34.013Z,102225.06
2023-04-07T19:13:01.641Z,102227.28
2023-04-07T19:15:35.167Z,102230.59
2023-04-07T19:18:02.469Z,102228.66
2023-04-07T19:20:30.231Z,102222.78
2023-04-07T19:22:57.581Z,102226.28
2023-04-07T19:25:24.514Z,102222.47
2023-04-07T19:28:00.906Z,102226.59
2023-04-07T19:30:27.506Z,102220.88
2023-04-07T19:32:53.982Z,102230.41
2023-04-07T19:35:20.647Z,102235.97
2023-04-07T19:37:48.232Z,102230.88
2023-04-07T19:40:15.121Z,102227.69
2023-04-07T19:42:42.213Z,102232.31
2023-04-07T19:45:09.582Z,102236.88
2023-04-07T19:47:36.888Z,102238.78
2023-04-07T19:50:04.333Z,102248.81
2023-04-07T19:52:32.028Z,102256.91
2023-04-07T19:54:59.799Z,102241.78
2023-04-07T19:57:26.382Z,102250.19
2023-04-07T19:59:52.964Z,102252.59
2023-04-07T20:02:19.541Z,102255.28
2023-04-07T20:04:46.109Z,102261.81
2023-04-07T20:07:12.537Z,102261.81
2023-04-07T20:09:39.371Z,102267.81
2023-04-07T20:12:05.968Z,102265.91
2023-04-07T20:14:32.850Z,102272.41
2023-04-07T20:17:51.714Z,102272.72
2023-04-07T20:20:18.789Z,102265.72
2023-04-07T20:22:45.717Z,102269.50
2023-04-07T20:25:12.237Z,102275.41
2023-04-07T20:27:39.785Z,102280.81
2023-04-07T20:30:07.106Z,102279.69
2023-04-07T20:32:33.696Z,102277.81
2023-04-07T20:35:00.391Z,102281.31
2023-04-07T20:37:27.985Z,102280.19
2023-04-07T20:39:55.714Z,102280.19
2023-04-07T20:42:22.237Z,102282.88
2023-04-07T20:44:49.135Z,102290.19
2023-04-07T20:47:15.588Z,102289.69
2023-04-07T20:49:43.734Z,102284.78
2023-04-07T20:52:10.242Z,102281.59
2023-04-07T20:54:36.980Z,102294.81
2023-04-07T20:57:03.668Z,102297.50
2023-04-07T20:59:30.453Z,102295.88
2023-04-07T21:01:57.316Z,102297.00
2023-04-07T21:04:24.733Z,102292.69
2023-04-07T21:06:51.438Z,102296.50
2023-04-07T21:09:18.094Z,102302.72
2023-04-07T21:11:44.489Z,102301.88
2023-04-07T21:14:11.475Z,102305.69
2023-04-07T21:16:37.947Z,102306.00
2023-04-07T21:19:04.355Z,102296.59
2023-04-07T21:21:31.653Z,102303.13
2023-04-07T21:23:58.155Z,102297.41
2023-04-07T21:26:24.564Z,102303.13
2023-04-07T21:28:51.930Z,102302.31
2023-04-07T21:34:15.448Z,102303.91
2023-04-07T21:36:42.010Z,102309.31
2023-04-07T21:39:09.481Z,102307.72
2023-04-07T21:41:36.526Z,102307.38
2023-04-07T21:44:08.658Z,102307.09
2023-04-07T21:46:37.733Z,102312.78
2023-04-07T21:49:04.789Z,102306.41
2023-04-07T21:51:31.582Z,102302.44
2023-04-07T21:53:57.965Z,102312.19
2023-04-07T21:56:24.686Z,102303.41
2023-04-07T21:58:51.347Z,102311.59
2023-04-07T22:01:17.770Z,102311.69
2023-04-07T22:03:45.670Z,102317.47
2023-04-07T22:06:12.234Z,102318.88
2023-04-07T22:08:39.134Z,102321.09
2023-04-07T22:11:05.685Z,102314.06
2023-04-07T22:13:32.142Z,102321.66
2023-04-07T22:16:01.086Z,102327.44
2023-04-07T22:18:28.445Z,102332.66
2023-04-07T22:20:54.958Z,102331.94
2023-04-07T22:23:23.879Z,102333.81
2023-04-07T22:25:56.651Z,102345.44
2023-04-07T22:28:23.375Z,102342.72
2023-04-07T22:30:49.862Z,102342.72
2023-04-07T22:33:16.389Z,102349.50
2023-04-07T22:35:42.917Z,102347.09
2023-04-07T22:38:09.481Z,102347.38
2023-04-07T22:40:36.955Z,102354.88
2023-04-07T22:43:03.479Z,102351.31
2023-04-07T22:45:31.424Z,102360.41
2023-04-07T22:47:57.874Z,102366.28
2023-04-07T22:50:24.431Z,102359.53
2023-04-07T22:52:50.840Z,102360.31
2023-04-07T22:55:17.417Z,102368.69
2023-04-07T22:57:44.346Z,102366.88
2023-04-07T23:00:11.771Z,102370.09
2023-04-07T23:02:38.647Z,102363.59
2023-04-07T23:05:10.536Z,102371.47
2023-04-07T23:07:37.696Z,102372.69
2023-04-07T23:10:04.637Z,102373.28
2023-04-07T23:12:31.274Z,102384.56
2023-04-07T23:14:57.788Z,102375.69
2023-04-07T23:17:24.371Z,102383.25
2023-04-07T23:19:51.009Z,102377.34
2023-04-07T23:22:17.398Z,102373.34
2023-04-07T23:24:43.953Z,102379.84
2023-04-07T23:27:10.589Z,102381.59
2023-04-07T23:29:37.180Z,102370.63
2023-04-07T23:32:03.934Z,102374.69
2023-04-07T23:34:30.385Z,102379.56
2023-04-07T23:36:56.735Z,102377.53
2023-04-07T23:39:23.107Z,102382.63
2023-04-07T23:41:50.160Z,102381.06
2023-04-07T23:44:17.509Z,102388.78
2023-04-07T23:46:47.763Z,102392.97
2023-04-07T23:49:14.518Z,102383.81
2023-04-07T23:51:41.199Z,102379.50
2023-04-07T23:54:07.829Z,102388.63
2023-04-07T23:56:34.448Z,102394.28
2023-04-07T23:59:01.327Z,102388.09
